createdAt,value
2022-10-23T00:00:52.651Z,0.00
2022-10-23T00:01:56.303Z,0.00
2022-10-23T00:02:52.570Z,0.00
2022-10-23T00:03:52.512Z,0.00
2022-10-23T00:04:52.494Z,0.00
2022-10-23T00:05:52.511Z,0.00
2022-10-23T00:06:52.462Z,0.00
2022-10-23T00:07:52.472Z,0.00
2022-10-23T00:08:52.453Z,0.00
2022-10-23T00:09:52.432Z,0.00
2022-10-23T00:10:52.454Z,0.00
2022-10-23T00:11:52.433Z,0.00
2022-10-23T00:12:52.415Z,0.00
2022-10-23T00:13:52.385Z,0.00
2022-10-23T00:14:52.400Z,0.00
2022-10-23T00:16:52.354Z,0.00
2022-10-23T00:17:52.356Z,0.00
2022-10-23T00:18:52.356Z,0.00
2022-10-23T00:19:52.563Z,0.00
2022-10-23T00:20:52.350Z,0.00
2022-10-23T00:21:52.315Z,0.00
2022-10-23T00:22:52.298Z,0.00
2022-10-23T00:23:52.278Z,0.00
2022-10-23T00:24:52.290Z,0.00
2022-10-23T00:25:52.266Z,0.00
2022-10-23T00:26:52.247Z,0.00
2022-10-23T00:27:52.244Z,0.00
2022-10-23T00:28:52.238Z,0.00
2022-10-23T00:29:52.218Z,0.00
2022-10-23T00:30:52.225Z,0.00
2022-10-23T00:31:52.220Z,0.00
2022-10-23T00:32:52.177Z,0.00
2022-10-23T00:33:52.168Z,0.00
2022-10-23T00:34:52.459Z,0.00
2022-10-23T00:35:52.167Z,0.00
2022-10-23T00:36:52.139Z,0.00
2022-10-23T00:37:52.151Z,0.00
2022-10-23T00:38:52.131Z,0.00
2022-10-23T00:39:52.109Z,0.00
2022-10-23T00:40:52.120Z,0.00
2022-10-23T00:41:52.097Z,0.00
2022-10-23T00:42:52.080Z,0.00
2022-10-23T00:43:52.068Z,0.00
2022-10-23T00:44:52.072Z,0.00
2022-10-23T00:45:52.058Z,0.00
2022-10-23T00:46:52.028Z,0.00
2022-10-23T00:47:52.018Z,0.00
2022-10-23T00:48:52.028Z,0.00
2022-10-23T00:49:52.249Z,0.00
2022-10-23T00:50:51.996Z,0.00
2022-10-23T00:51:51.997Z,0.00
2022-10-23T00:52:51.977Z,0.00
2022-10-23T00:54:01.172Z,0.00
2022-10-23T00:54:53.209Z,0.00
2022-10-23T00:55:51.938Z,0.00
2022-10-23T00:56:51.949Z,0.00
2022-10-23T00:57:51.928Z,0.00
2022-10-23T00:58:51.900Z,0.00
2022-10-23T00:59:51.874Z,0.00
2022-10-23T01:00:51.888Z,0.00
2022-10-23T01:01:52.223Z,0.00
2022-10-23T01:02:51.860Z,0.00
2022-10-23T01:03:51.831Z,0.00
2022-10-23T01:04:51.911Z,0.00
2022-10-23T01:05:51.849Z,0.00
2022-10-23T01:06:51.807Z,0.00
2022-10-23T01:07:51.800Z,0.00
2022-10-23T01:08:51.801Z,0.00
2022-10-23T01:09:51.779Z,0.00
2022-10-23T01:10:51.762Z,0.00
2022-10-23T01:11:51.761Z,0.00
2022-10-23T01:12:51.744Z,0.00
2022-10-23T01:13:51.744Z,0.00
2022-10-23T01:14:51.742Z,0.00
2022-10-23T01:15:51.718Z,0.00
2022-10-23T01:16:51.695Z,0.00
2022-10-23T01:17:51.883Z,0.00
2022-10-23T01:18:51.693Z,0.00
2022-10-23T01:19:51.669Z,0.00
2022-10-23T01:20:51.663Z,0.00
2022-10-23T01:21:51.685Z,0.00
2022-10-23T01:22:51.657Z,0.00
2022-10-23T01:23:51.625Z,0.00
2022-10-23T01:24:51.606Z,0.00
2022-10-23T01:25:51.614Z,0.00
2022-10-23T01:26:51.837Z,0.00
2022-10-23T01:27:51.573Z,0.00
2022-10-23T01:28:51.583Z,0.00
2022-10-23T01:29:51.564Z,0.00
2022-10-23T01:30:51.526Z,0.00
2022-10-23T01:31:51.559Z,0.00
2022-10-23T01:32:51.516Z,0.00
2022-10-23T01:33:51.530Z,0.00
2022-10-23T01:34:51.498Z,0.00
2022-10-23T01:35:51.578Z,0.00
2022-10-23T01:36:51.481Z,0.00
2022-10-23T01:37:51.467Z,0.00
2022-10-23T01:38:51.521Z,0.00
2022-10-23T01:39:51.456Z,0.00
2022-10-23T01:40:51.446Z,0.00
2022-10-23T01:41:51.415Z,0.00
2022-10-23T01:42:51.418Z,0.00
2022-10-23T01:43:51.404Z,0.00
2022-10-23T01:44:51.411Z,0.00
2022-10-23T01:45:52.127Z,0.00
2022-10-23T01:46:51.376Z,0.00
2022-10-23T01:47:51.367Z,0.00
2022-10-23T01:48:51.354Z,0.00
2022-10-23T01:49:51.356Z,0.00
2022-10-23T01:50:51.346Z,0.00
2022-10-23T01:51:51.307Z,0.00
2022-10-23T01:52:51.327Z,0.00
2022-10-23T01:53:51.289Z,0.00
2022-10-23T01:54:51.343Z,0.00
2022-10-23T01:55:51.349Z,0.00
2022-10-23T01:56:51.532Z,0.00
2022-10-23T01:57:51.239Z,0.00
2022-10-23T01:58:51.228Z,0.00
2022-10-23T01:59:51.228Z,0.00
2022-10-23T02:00:51.210Z,0.00
2022-10-23T02:01:51.337Z,0.00
2022-10-23T02:02:51.196Z,0.00
2022-10-23T02:03:51.196Z,0.00
2022-10-23T02:04:51.240Z,0.00
2022-10-23T02:05:51.489Z,0.00
2022-10-23T02:06:51.155Z,0.00
2022-10-23T02:07:51.138Z,0.00
2022-10-23T02:08:51.127Z,0.00
2022-10-23T02:09:51.129Z,0.00
2022-10-23T02:10:51.122Z,0.00
2022-10-23T02:11:51.089Z,0.00
2022-10-23T02:12:51.080Z,0.00
2022-10-23T02:13:51.080Z,0.00
2022-10-23T02:14:51.074Z,0.00
2022-10-23T02:15:51.098Z,0.00
2022-10-23T02:16:51.040Z,0.00
2022-10-23T02:17:51.021Z,0.00
2022-10-23T02:18:51.011Z,0.00
2022-10-23T02:19:51.005Z,0.00
2022-10-23T02:20:51.023Z,0.00
2022-10-23T02:21:50.994Z,0.00
2022-10-23T02:22:50.966Z,0.00
2022-10-23T02:23:53.713Z,0.00
2022-10-23T02:24:51.941Z,0.00
2022-10-23T02:25:50.975Z,0.00
2022-10-23T02:26:50.951Z,0.00
2022-10-23T02:27:50.913Z,0.00
2022-10-23T02:28:50.901Z,0.00
2022-10-23T02:29:50.893Z,0.00
2022-10-23T02:30:50.893Z,0.00
2022-10-23T02:31:50.866Z,0.00
2022-10-23T02:32:50.849Z,0.00
2022-10-23T02:33:50.846Z,0.00
2022-10-23T02:34:50.876Z,0.00
2022-10-23T02:35:50.844Z,0.00
2022-10-23T02:36:50.812Z,0.00
2022-10-23T02:37:50.801Z,0.00
2022-10-23T02:38:50.785Z,0.00
2022-10-23T02:39:50.799Z,0.00
2022-10-23T02:40:50.803Z,0.00
2022-10-23T02:41:50.745Z,0.00
2022-10-23T02:42:50.753Z,0.00
2022-10-23T02:43:50.738Z,0.00
2022-10-23T02:44:50.750Z,0.00
2022-10-23T02:45:50.785Z,0.00
2022-10-23T02:46:50.707Z,0.00
2022-10-23T02:47:50.953Z,0.00
2022-10-23T02:48:50.676Z,0.00
2022-10-23T02:49:50.667Z,0.00
2022-10-23T02:50:50.674Z,0.00
2022-10-23T02:51:50.648Z,0.00
2022-10-23T02:52:50.636Z,0.00
2022-10-23T02:53:50.665Z,0.00
2022-10-23T02:54:50.623Z,0.00
2022-10-23T02:55:50.645Z,0.00
2022-10-23T02:56:50.863Z,0.00
2022-10-23T02:57:50.587Z,0.00
2022-10-23T02:58:50.568Z,0.00
2022-10-23T02:59:50.567Z,0.00
2022-10-23T03:00:50.558Z,0.00
2022-10-23T03:01:50.628Z,0.00
2022-10-23T03:02:50.518Z,0.00
2022-10-23T03:03:50.520Z,0.00
2022-10-23T03:04:50.511Z,0.00
2022-10-23T03:05:50.728Z,0.00
2022-10-23T03:06:50.477Z,0.00
2022-10-23T03:07:50.488Z,0.00
2022-10-23T03:08:50.450Z,0.00
2022-10-23T03:09:50.458Z,0.00
2022-10-23T03:10:50.461Z,0.00
2022-10-23T03:11:50.433Z,0.00
2022-10-23T03:12:50.407Z,0.00
2022-10-23T03:13:50.406Z,0.00
2022-10-23T03:14:50.390Z,0.00
2022-10-23T03:15:50.391Z,0.00
2022-10-23T03:16:50.370Z,0.00
2022-10-23T03:17:50.368Z,0.00
2022-10-23T03:18:50.357Z,0.00
2022-10-23T03:19:50.338Z,0.00
2022-10-23T03:20:50.370Z,0.00
2022-10-23T03:21:50.310Z,0.00
2022-10-23T03:22:50.305Z,0.00
2022-10-23T03:23:50.321Z,0.00
2022-10-23T03:24:50.281Z,0.00
2022-10-23T03:25:50.468Z,0.00
2022-10-23T03:26:50.250Z,0.00
2022-10-23T03:27:50.262Z,0.00
2022-10-23T03:28:50.272Z,0.00
2022-10-23T03:29:50.231Z,0.00
2022-10-23T03:30:50.222Z,0.00
2022-10-23T03:31:50.228Z,0.00
2022-10-23T03:32:50.182Z,0.00
2022-10-23T03:33:50.195Z,0.00
2022-10-23T03:34:50.176Z,0.00
2022-10-23T03:35:50.186Z,0.00
2022-10-23T03:36:50.179Z,0.00
2022-10-23T03:37:50.147Z,0.00
2022-10-23T03:38:50.131Z,0.00
2022-10-23T03:39:50.132Z,0.00
2022-10-23T03:40:50.142Z,0.00
2022-10-23T03:41:50.100Z,0.00
2022-10-23T03:42:50.081Z,0.00
2022-10-23T03:43:50.075Z,0.00
2022-10-23T03:44:50.335Z,0.00
2022-10-23T03:45:50.064Z,0.00
2022-10-23T03:46:50.038Z,0.00
2022-10-23T03:47:50.031Z,0.00
2022-10-23T03:48:50.023Z,0.00
2022-10-23T03:49:50.017Z,0.00
2022-10-23T03:50:50.004Z,0.00
2022-10-23T03:51:49.984Z,0.00
2022-10-23T03:52:49.992Z,0.00
2022-10-23T03:53:49.952Z,0.00
2022-10-23T03:54:49.956Z,0.00
2022-10-23T03:55:49.944Z,0.00
2022-10-23T03:56:52.521Z,0.00
2022-10-23T03:57:50.926Z,0.00
2022-10-23T03:58:49.912Z,0.00
2022-10-23T03:59:49.898Z,0.00
2022-10-23T04:00:49.923Z,0.00
2022-10-23T04:01:49.965Z,0.00
2022-10-23T04:02:49.865Z,0.00
2022-10-23T04:03:49.846Z,0.00
2022-10-23T04:04:50.130Z,0.00
2022-10-23T04:05:52.226Z,0.00
2022-10-23T04:06:49.814Z,0.00
2022-10-23T04:07:50.079Z,0.00
2022-10-23T04:08:49.831Z,0.00
2022-10-23T04:09:49.776Z,0.00
2022-10-23T04:10:49.776Z,0.00
2022-10-23T04:11:49.770Z,0.00
2022-10-23T04:12:49.756Z,0.00
2022-10-23T04:13:49.747Z,0.00
2022-10-23T04:14:49.748Z,0.00
2022-10-23T04:15:49.735Z,0.00
2022-10-23T04:16:49.710Z,0.00
2022-10-23T04:17:49.710Z,0.00
2022-10-23T04:18:49.687Z,0.00
2022-10-23T04:19:49.670Z,0.00
2022-10-23T04:20:49.687Z,0.00
2022-10-23T04:21:49.662Z,0.00
2022-10-23T04:22:49.649Z,0.00
2022-10-23T04:23:49.630Z,0.00
2022-10-23T04:24:49.631Z,0.00
2022-10-23T04:25:49.621Z,0.00
2022-10-23T04:26:49.619Z,0.00
2022-10-23T04:27:49.589Z,0.00
2022-10-23T04:28:49.580Z,0.00
2022-10-23T04:29:49.578Z,0.00
2022-10-23T04:30:49.677Z,0.00
2022-10-23T04:31:49.552Z,0.00
2022-10-23T04:32:49.531Z,0.00
2022-10-23T04:33:49.518Z,0.00
2022-10-23T04:34:49.514Z,0.00
2022-10-23T04:35:49.511Z,0.00
2022-10-23T04:36:49.483Z,0.00
2022-10-23T04:37:49.483Z,0.00
2022-10-23T04:38:49.470Z,0.00
2022-10-23T04:39:49.461Z,0.00
2022-10-23T04:40:49.484Z,0.00
2022-10-23T04:41:49.431Z,0.00
2022-10-23T04:42:49.430Z,0.00
2022-10-23T04:43:49.421Z,0.00
2022-10-23T04:44:49.402Z,0.00
2022-10-23T04:45:49.401Z,0.00
2022-10-23T04:46:49.394Z,0.00
2022-10-23T04:47:49.355Z,0.00
2022-10-23T04:48:49.359Z,0.00
2022-10-23T04:49:49.627Z,0.00
2022-10-23T04:50:49.348Z,0.00
2022-10-23T04:51:49.327Z,0.00
2022-10-23T04:52:49.313Z,0.00
2022-10-23T04:53:49.302Z,0.00
2022-10-23T04:54:49.272Z,0.00
2022-10-23T04:55:49.302Z,0.00
2022-10-23T04:56:49.266Z,0.00
2022-10-23T04:57:49.277Z,0.00
2022-10-23T04:58:49.243Z,0.00
2022-10-23T04:59:49.254Z,0.00
2022-10-23T05:00:49.267Z,0.00
2022-10-23T05:01:49.246Z,0.00
2022-10-23T05:02:49.210Z,0.00
2022-10-23T05:03:49.182Z,0.00
2022-10-23T05:04:49.162Z,0.00
2022-10-23T05:05:49.184Z,0.00
2022-10-23T05:06:49.226Z,0.00
2022-10-23T05:07:49.156Z,0.00
2022-10-23T05:08:49.154Z,0.00
2022-10-23T05:09:49.395Z,0.00
2022-10-23T05:10:49.141Z,0.00
2022-10-23T05:11:49.094Z,0.00
2022-10-23T05:12:49.103Z,0.00
2022-10-23T05:13:49.070Z,0.00
2022-10-23T05:14:49.070Z,0.00
2022-10-23T05:15:49.107Z,0.00
2022-10-23T05:16:49.051Z,0.00
2022-10-23T05:17:49.027Z,0.00
2022-10-23T05:18:49.040Z,0.00
2022-10-23T05:19:49.007Z,0.00
2022-10-23T05:20:49.015Z,0.00
2022-10-23T05:21:48.996Z,0.00
2022-10-23T05:22:48.990Z,0.00
2022-10-23T05:23:49.039Z,0.00
2022-10-23T05:24:50.566Z,0.00
2022-10-23T05:25:48.973Z,0.00
2022-10-23T05:26:48.927Z,0.00
2022-10-23T05:27:48.930Z,0.00
2022-10-23T05:28:48.929Z,0.00
2022-10-23T05:29:48.888Z,0.00
2022-10-23T05:30:48.907Z,0.00
2022-10-23T05:31:48.868Z,0.00
2022-10-23T05:32:48.879Z,0.00
2022-10-23T05:33:48.878Z,0.00
2022-10-23T05:34:48.838Z,0.00
2022-10-23T05:35:48.865Z,0.00
2022-10-23T05:36:48.841Z,0.00
2022-10-23T05:37:48.818Z,0.00
2022-10-23T05:38:48.800Z,0.00
2022-10-23T05:39:48.802Z,0.00
2022-10-23T05:40:49.040Z,4.00
2022-10-23T05:41:48.764Z,4.00
2022-10-23T05:42:49.006Z,0.00
2022-10-23T05:43:49.009Z,4.00
2022-10-23T05:44:48.739Z,4.00
2022-10-23T05:45:48.750Z,4.00
2022-10-23T05:46:48.720Z,8.00
2022-10-23T05:47:48.711Z,8.00
2022-10-23T05:48:48.791Z,8.00
2022-10-23T05:49:48.690Z,12.00
2022-10-23T05:50:48.674Z,16.00
2022-10-23T05:51:48.663Z,16.00
2022-10-23T05:52:48.650Z,20.00
2022-10-23T05:53:48.644Z,20.00
2022-10-23T05:54:48.626Z,24.00
2022-10-23T05:55:48.618Z,28.00
2022-10-23T05:56:48.612Z,32.00
2022-10-23T05:57:48.583Z,36.00
2022-10-23T05:58:48.581Z,44.00
2022-10-23T05:59:48.858Z,52.00
2022-10-23T06:00:48.571Z,56.00
2022-10-23T06:01:48.665Z,64.00
2022-10-23T06:02:48.544Z,72.00
2022-10-23T06:03:48.525Z,80.00
2022-10-23T06:04:48.503Z,88.00
2022-10-23T06:05:48.515Z,96.00
2022-10-23T06:06:48.503Z,108.00
2022-10-23T06:07:48.472Z,116.00
2022-10-23T06:08:48.484Z,128.00
2022-10-23T06:09:48.462Z,140.00
2022-10-23T06:10:48.463Z,144.00
2022-10-23T06:11:48.423Z,160.00
2022-10-23T06:12:48.445Z,168.00
2022-10-23T06:13:48.483Z,184.00
2022-10-23T06:14:48.404Z,204.00
2022-10-23T06:15:48.400Z,224.00
2022-10-23T06:16:48.395Z,252.00
2022-10-23T06:17:48.374Z,284.00
2022-10-23T06:18:48.355Z,316.00
2022-10-23T06:19:48.365Z,348.00
2022-10-23T06:20:48.356Z,388.00
2022-10-23T06:21:48.339Z,436.00
2022-10-23T06:22:48.345Z,476.00
2022-10-23T06:23:48.328Z,520.00
2022-10-23T06:24:48.306Z,564.00
2022-10-23T06:25:48.287Z,608.00
2022-10-23T06:26:48.280Z,656.00
2022-10-23T06:27:48.265Z,700.00
2022-10-23T06:28:48.274Z,748.00
2022-10-23T06:29:48.246Z,800.00
2022-10-23T06:30:48.256Z,852.00
2022-10-23T06:31:48.204Z,908.00
2022-10-23T06:32:48.195Z,960.00
2022-10-23T06:33:48.186Z,1012.00
2022-10-23T06:34:48.176Z,1072.00
2022-10-23T06:35:48.202Z,1132.00
2022-10-23T06:36:48.159Z,1200.00
2022-10-23T06:37:48.145Z,1252.00
2022-10-23T06:38:48.202Z,1312.00
2022-10-23T06:39:48.122Z,1372.00
2022-10-23T06:40:48.112Z,1420.00
2022-10-23T06:41:48.128Z,1444.00
2022-10-23T06:42:48.079Z,1432.00
2022-10-23T06:43:48.090Z,1408.00
2022-10-23T06:44:48.068Z,1384.00
2022-10-23T06:45:48.072Z,1376.00
2022-10-23T06:46:48.310Z,1368.00
2022-10-23T06:47:48.039Z,1364.00
2022-10-23T06:48:48.020Z,1376.00
2022-10-23T06:49:47.999Z,1384.00
2022-10-23T06:50:47.997Z,1424.00
2022-10-23T06:51:47.999Z,1464.00
2022-10-23T06:52:48.112Z,1500.00
2022-10-23T06:53:47.967Z,1540.00
2022-10-23T06:54:47.958Z,1584.00
2022-10-23T06:55:50.190Z,1624.00
2022-10-23T06:56:47.939Z,1660.00
2022-10-23T06:57:47.941Z,1676.00
2022-10-23T06:58:47.897Z,1700.00
2022-10-23T06:59:47.900Z,1716.00
2022-10-23T07:00:47.933Z,1744.00
2022-10-23T07:01:48.064Z,1792.00
2022-10-23T07:02:47.859Z,1844.00
2022-10-23T07:03:47.866Z,1872.00
2022-10-23T07:04:47.851Z,1880.00
2022-10-23T07:05:47.841Z,1920.00
2022-10-23T07:06:47.852Z,1960.00
2022-10-23T07:07:47.894Z,1992.00
2022-10-23T07:08:47.800Z,2008.00
2022-10-23T07:09:47.802Z,2024.00
2022-10-23T07:10:47.793Z,2036.00
2022-10-23T07:11:47.770Z,2048.00
2022-10-23T07:12:47.761Z,2064.00
2022-10-23T07:13:47.752Z,2080.00
2022-10-23T07:14:47.732Z,2088.00
2022-10-23T07:15:47.722Z,2096.00
2022-10-23T07:16:47.713Z,2108.00
2022-10-23T07:17:47.830Z,2136.00
2022-10-23T07:18:47.768Z,2148.00
2022-10-23T07:19:47.692Z,2160.00
2022-10-23T07:20:47.712Z,2180.00
2022-10-23T07:21:47.894Z,2200.00
2022-10-23T07:22:47.653Z,2220.00
2022-10-23T07:23:47.632Z,2248.00
2022-10-23T07:24:47.640Z,2288.00
2022-10-23T07:25:47.608Z,2332.00
2022-10-23T07:26:47.640Z,2396.00
2022-10-23T07:27:47.765Z,2468.00
2022-10-23T07:28:47.583Z,2504.00
2022-10-23T07:29:47.583Z,2556.00
2022-10-23T07:30:47.579Z,2612.00
2022-10-23T07:31:47.585Z,2728.00
2022-10-23T07:32:47.543Z,2804.00
2022-10-23T07:33:47.524Z,2836.00
2022-10-23T07:34:47.517Z,2924.00
2022-10-23T07:35:47.512Z,2944.00
2022-10-23T07:36:47.491Z,2936.00
2022-10-23T07:37:47.528Z,2880.00
2022-10-23T07:38:47.952Z,2952.00
2022-10-23T07:39:48.472Z,2960.00
2022-10-23T07:40:47.455Z,2996.00
2022-10-23T07:41:47.427Z,3028.00
2022-10-23T07:42:47.426Z,3024.00
2022-10-23T07:43:47.434Z,2968.00
2022-10-23T07:44:47.388Z,3040.00
2022-10-23T07:45:47.436Z,3008.00
2022-10-23T07:46:47.378Z,3032.00
2022-10-23T07:47:47.479Z,2928.00
2022-10-23T07:48:47.397Z,2812.00
2022-10-23T07:49:47.480Z,2728.00
2022-10-23T07:50:47.330Z,2828.00
2022-10-23T07:51:50.514Z,2784.00
2022-10-23T07:52:47.453Z,2872.00
2022-10-23T07:53:47.296Z,3016.00
2022-10-23T07:54:47.276Z,2932.00
2022-10-23T07:55:47.299Z,2900.00
2022-10-23T07:56:48.128Z,2892.00
2022-10-23T07:57:47.248Z,3092.00
2022-10-23T07:58:47.289Z,3312.00
2022-10-23T07:59:47.239Z,3348.00
2022-10-23T08:00:47.233Z,3388.00
2022-10-23T08:01:47.308Z,3304.00
2022-10-23T08:02:47.221Z,3444.00
2022-10-23T08:03:47.187Z,3532.00
2022-10-23T08:04:47.151Z,3636.00
2022-10-23T08:05:47.160Z,3748.00
2022-10-23T08:06:47.178Z,3868.00
2022-10-23T08:07:47.222Z,3948.00
2022-10-23T08:08:47.136Z,3960.00
2022-10-23T08:09:47.110Z,4012.00
2022-10-23T08:10:47.122Z,3672.00
2022-10-23T08:11:47.119Z,3768.00
2022-10-23T08:12:47.072Z,3884.00
2022-10-23T08:13:47.053Z,4124.00
2022-10-23T08:14:47.118Z,4148.00
2022-10-23T08:15:47.072Z,4232.00
2022-10-23T08:16:47.051Z,4292.00
2022-10-23T08:17:47.022Z,4304.00
2022-10-23T08:18:47.024Z,4472.00
2022-10-23T08:19:47.011Z,4636.00
2022-10-23T08:20:47.024Z,4632.00
2022-10-23T08:21:47.205Z,4536.00
2022-10-23T08:22:46.963Z,4932.00
2022-10-23T08:23:46.933Z,5008.00
2022-10-23T08:24:46.967Z,5188.00
2022-10-23T08:25:46.979Z,5144.00
2022-10-23T08:26:46.925Z,5404.00
2022-10-23T08:27:46.925Z,5444.00
2022-10-23T08:28:46.947Z,5480.00
2022-10-23T08:29:46.882Z,5380.00
2022-10-23T08:30:46.925Z,5696.00
2022-10-23T08:31:46.857Z,5888.00
2022-10-23T08:32:46.857Z,6024.00
2022-10-23T08:33:46.865Z,6296.00
2022-10-23T08:34:46.835Z,6264.00
2022-10-23T08:35:47.035Z,6416.00
2022-10-23T08:36:47.348Z,6588.00
2022-10-23T08:37:46.869Z,6552.00
2022-10-23T08:38:46.856Z,6532.00
2022-10-23T08:39:50.084Z,6360.00
2022-10-23T08:40:47.772Z,6280.00
2022-10-23T08:41:46.776Z,6116.00
2022-10-23T08:42:46.740Z,5928.00
2022-10-23T08:43:46.725Z,5828.00
2022-10-23T08:44:46.749Z,5700.00
2022-10-23T08:45:46.699Z,5328.00
2022-10-23T08:46:46.689Z,5616.00
2022-10-23T08:47:46.689Z,5444.00
2022-10-23T08:48:46.702Z,5972.00
2022-10-23T08:49:47.678Z,6028.00
2022-10-23T08:50:46.653Z,6164.00
2022-10-23T08:51:46.658Z,6244.00
2022-10-23T08:52:46.944Z,6336.00
2022-10-23T08:53:46.629Z,6152.00
2022-10-23T08:54:46.600Z,5836.00
2022-10-23T08:55:46.611Z,5704.00
2022-10-23T08:56:46.602Z,5876.00
2022-10-23T08:57:46.569Z,6116.00
2022-10-23T08:58:46.680Z,6436.00
2022-10-23T08:59:46.560Z,6016.00
2022-10-23T09:00:46.670Z,6248.00
2022-10-23T09:01:46.741Z,6232.00
2022-10-23T09:02:46.805Z,6268.00
2022-10-23T09:03:46.500Z,6232.00
2022-10-23T09:04:46.500Z,6236.00
2022-10-23T09:05:46.492Z,6224.00
2022-10-23T09:06:46.471Z,6156.00
2022-10-23T09:07:46.574Z,6128.00
2022-10-23T09:08:46.454Z,6056.00
2022-10-23T09:09:46.441Z,6100.00
2022-10-23T09:10:48.153Z,6032.00
2022-10-23T09:11:46.497Z,5948.00
2022-10-23T09:12:46.414Z,5992.00
2022-10-23T09:13:46.394Z,5968.00
2022-10-23T09:14:46.376Z,5952.00
2022-10-23T09:15:46.405Z,5816.00
2022-10-23T09:16:46.373Z,5780.00
2022-10-23T09:17:46.851Z,5804.00
2022-10-23T09:18:46.644Z,5580.00
2022-10-23T09:19:46.333Z,5784.00
2022-10-23T09:20:46.363Z,5784.00
2022-10-23T09:21:46.325Z,5900.00
2022-10-23T09:22:46.306Z,5968.00
2022-10-23T09:23:46.295Z,5744.00
2022-10-23T09:24:47.658Z,5704.00
2022-10-23T09:25:46.274Z,5688.00
2022-10-23T09:26:46.242Z,5776.00
2022-10-23T09:27:46.253Z,5808.00
2022-10-23T09:28:46.247Z,5784.00
2022-10-23T09:29:46.223Z,5764.00
2022-10-23T09:30:46.224Z,5804.00
2022-10-23T09:31:46.226Z,5888.00
2022-10-23T09:32:46.174Z,5764.00
2022-10-23T09:33:46.177Z,5848.00
2022-10-23T09:34:46.156Z,5708.00
2022-10-23T09:35:46.197Z,5724.00
2022-10-23T09:36:46.171Z,5760.00
2022-10-23T09:37:46.204Z,5804.00
2022-10-23T09:38:46.098Z,5832.00
2022-10-23T09:39:46.107Z,5908.00
2022-10-23T09:40:46.099Z,5924.00
2022-10-23T09:41:46.068Z,6004.00
2022-10-23T09:42:46.070Z,6088.00
2022-10-23T09:43:46.250Z,6192.00
2022-10-23T09:44:46.029Z,6316.00
2022-10-23T09:45:46.089Z,6372.00
2022-10-23T09:46:46.173Z,6448.00
2022-10-23T09:47:46.068Z,6484.00
2022-10-23T09:48:46.016Z,6516.00
2022-10-23T09:49:46.106Z,6552.00
2022-10-23T09:50:47.020Z,6580.00
2022-10-23T09:51:45.944Z,6612.00
2022-10-23T09:52:45.992Z,6648.00
2022-10-23T09:53:45.933Z,6676.00
2022-10-23T09:54:46.045Z,6728.00
2022-10-23T09:55:45.912Z,6724.00
2022-10-23T09:56:45.900Z,6628.00
2022-10-23T09:57:46.208Z,6628.00
2022-10-23T09:58:45.920Z,6816.00
2022-10-23T09:59:45.843Z,6524.00
2022-10-23T10:00:45.900Z,6560.00
2022-10-23T10:01:45.892Z,6556.00
2022-10-23T10:02:47.041Z,6488.00
2022-10-23T10:03:45.804Z,6476.00
2022-10-23T10:04:45.798Z,6504.00
2022-10-23T10:05:45.818Z,6528.00
2022-10-23T10:06:45.789Z,6536.00
2022-10-23T10:07:45.958Z,6516.00
2022-10-23T10:08:45.753Z,6452.00
2022-10-23T10:09:45.779Z,6376.00
2022-10-23T10:10:45.735Z,6308.00
2022-10-23T10:11:45.704Z,6220.00
2022-10-23T10:12:45.723Z,6152.00
2022-10-23T10:13:45.713Z,6080.00
2022-10-23T10:14:45.672Z,5996.00
2022-10-23T10:15:45.687Z,5884.00
2022-10-23T10:16:45.663Z,5748.00
2022-10-23T10:17:46.002Z,5608.00
2022-10-23T10:18:45.635Z,5480.00
2022-10-23T10:19:45.878Z,5356.00
2022-10-23T10:20:45.616Z,5248.00
2022-10-23T10:21:45.595Z,5148.00
2022-10-23T10:22:45.602Z,5028.00
2022-10-23T10:23:45.577Z,4904.00
2022-10-23T10:24:45.548Z,4800.00
2022-10-23T10:25:49.761Z,4688.00
2022-10-23T10:26:46.549Z,4560.00
2022-10-23T10:27:45.873Z,4492.00
2022-10-23T10:28:45.519Z,4464.00
2022-10-23T10:29:45.562Z,4420.00
2022-10-23T10:30:45.499Z,4372.00
2022-10-23T10:31:49.337Z,4296.00
2022-10-23T10:32:46.480Z,4232.00
2022-10-23T10:33:45.450Z,4240.00
2022-10-23T10:34:45.450Z,4296.00
2022-10-23T10:35:45.449Z,4368.00
2022-10-23T10:36:45.412Z,4476.00
2022-10-23T10:37:47.428Z,4604.00
2022-10-23T10:38:45.669Z,4712.00
2022-10-23T10:39:45.666Z,4784.00
2022-10-23T10:40:45.390Z,4772.00
2022-10-23T10:41:45.367Z,4724.00
2022-10-23T10:42:45.371Z,4640.00
2022-10-23T10:43:45.331Z,4492.00
2022-10-23T10:44:45.323Z,4268.00
2022-10-23T10:45:45.327Z,4032.00
2022-10-23T10:46:45.301Z,3792.00
2022-10-23T10:47:45.541Z,3540.00
2022-10-23T10:48:45.291Z,3296.00
2022-10-23T10:49:45.283Z,3132.00
2022-10-23T10:50:45.293Z,3048.00
2022-10-23T10:51:45.263Z,3016.00
2022-10-23T10:52:48.363Z,3020.00
2022-10-23T10:53:45.235Z,3016.00
2022-10-23T10:54:45.224Z,2936.00
2022-10-23T10:55:45.228Z,2760.00
2022-10-23T10:56:45.209Z,2508.00
2022-10-23T10:57:45.456Z,2228.00
2022-10-23T10:58:45.179Z,1984.00
2022-10-23T10:59:45.164Z,1812.00
2022-10-23T11:00:45.214Z,1720.00
2022-10-23T11:01:45.277Z,1668.00
2022-10-23T11:02:45.174Z,1640.00
2022-10-23T11:03:45.206Z,1648.00
2022-10-23T11:04:45.124Z,1668.00
2022-10-23T11:05:45.148Z,1696.00
2022-10-23T11:06:45.129Z,1716.00
2022-10-23T11:07:45.360Z,1720.00
2022-10-23T11:08:57.181Z,1708.00
2022-10-23T11:09:46.065Z,1744.00
2022-10-23T11:10:45.040Z,1800.00
2022-10-23T11:11:45.066Z,1860.00
2022-10-23T11:12:45.015Z,1916.00
2022-10-23T11:13:45.007Z,1964.00
2022-10-23T11:14:45.012Z,2056.00
2022-10-23T11:15:45.052Z,2160.00
2022-10-23T11:16:44.972Z,2244.00
2022-10-23T11:17:45.410Z,2304.00
2022-10-23T11:18:44.958Z,2416.00
2022-10-23T11:19:44.968Z,2572.00
2022-10-23T11:20:44.930Z,2828.00
2022-10-23T11:21:44.921Z,3224.00
2022-10-23T11:22:45.187Z,3632.00
2022-10-23T11:23:44.901Z,3968.00
2022-10-23T11:24:48.175Z,4224.00
2022-10-23T11:25:44.898Z,4428.00
2022-10-23T11:26:44.861Z,4528.00
2022-10-23T11:27:45.314Z,4516.00
2022-10-23T11:28:44.900Z,4588.00
2022-10-23T11:29:44.842Z,4712.00
2022-10-23T11:30:44.811Z,4880.00
2022-10-23T11:31:44.823Z,5160.00
2022-10-23T11:32:44.802Z,5464.00
2022-10-23T11:33:44.871Z,5804.00
2022-10-23T11:34:44.808Z,6156.00
2022-10-23T11:35:44.766Z,6520.00
2022-10-23T11:36:44.743Z,6812.00
2022-10-23T11:37:44.955Z,7128.00
2022-10-23T11:38:44.723Z,7352.00
2022-10-23T11:39:44.733Z,7456.00
2022-10-23T11:40:44.744Z,7560.00
2022-10-23T11:41:44.967Z,7676.00
2022-10-23T11:42:44.976Z,7792.00
2022-10-23T11:43:44.674Z,7868.00
2022-10-23T11:44:44.715Z,7660.00
2022-10-23T11:45:44.945Z,7592.00
2022-10-23T11:46:44.644Z,7600.00
2022-10-23T11:47:44.631Z,7884.00
2022-10-23T11:48:44.625Z,7664.00
2022-10-23T11:49:44.607Z,7620.00
2022-10-23T11:50:44.587Z,7616.00
2022-10-23T11:51:44.575Z,7688.00
2022-10-23T11:52:50.749Z,7628.00
2022-10-23T11:53:45.547Z,7624.00
2022-10-23T11:54:44.836Z,7720.00
2022-10-23T11:55:44.552Z,7732.00
2022-10-23T11:56:44.653Z,7800.00
2022-10-23T11:57:45.448Z,7856.00
2022-10-23T11:58:44.892Z,7800.00
2022-10-23T11:59:44.507Z,7720.00
2022-10-23T12:00:44.639Z,7616.00
2022-10-23T12:01:45.333Z,7544.00
2022-10-23T12:02:44.784Z,7388.00
2022-10-23T12:03:44.878Z,7320.00
2022-10-23T12:04:44.818Z,7216.00
2022-10-23T12:05:44.441Z,7192.00
2022-10-23T12:06:44.426Z,7244.00
2022-10-23T12:07:44.552Z,7472.00
2022-10-23T12:08:45.469Z,7528.00
2022-10-23T12:09:45.310Z,7428.00
2022-10-23T12:10:44.359Z,7464.00
2022-10-23T12:11:44.353Z,7448.00
2022-10-23T12:12:44.351Z,7452.00
2022-10-23T12:13:44.321Z,7432.00
2022-10-23T12:14:44.354Z,7444.00
2022-10-23T12:15:44.598Z,7448.00
2022-10-23T12:16:44.313Z,7396.00
2022-10-23T12:17:44.506Z,7276.00
2022-10-23T12:18:44.273Z,7208.00
2022-10-23T12:19:44.281Z,7216.00
2022-10-23T12:20:44.243Z,7232.00
2022-10-23T12:21:44.233Z,7196.00
2022-10-23T12:22:44.225Z,7148.00
2022-10-23T12:23:47.274Z,7176.00
2022-10-23T12:24:44.213Z,7088.00
2022-10-23T12:25:44.216Z,7104.00
2022-10-23T12:26:44.177Z,7136.00
2022-10-23T12:27:45.063Z,7260.00
2022-10-23T12:28:44.167Z,7328.00
2022-10-23T12:29:44.485Z,7340.00
2022-10-23T12:30:44.163Z,7420.00
2022-10-23T12:31:47.035Z,7340.00
2022-10-23T12:32:44.440Z,7356.00
2022-10-23T12:33:44.095Z,7416.00
2022-10-23T12:34:44.088Z,7456.00
2022-10-23T12:35:44.076Z,7464.00
2022-10-23T12:36:44.077Z,7452.00
2022-10-23T12:37:44.054Z,7440.00
2022-10-23T12:38:44.044Z,7456.00
2022-10-23T12:39:44.054Z,7280.00
2022-10-23T12:40:44.015Z,7200.00